Salt Lake City, Utah
Traffic Map
Current Weather Conditions
Salt Lake City, Utah
Scattered Clouds
Scattered Clouds
48°
Feels Like: 48°
Wind Chill: 48° Ceiling: Unl
Heat Index: 48° Visibility: 10mi
Dew Point: 47° Wind: 0mph
Humidity: 96% Direction: ° ()
Pressure: 29.97in Gusts: 0mph
Raw Report DataKSLC 190753Z 00000KT 10SM SCT100 SCT150 09/08 A2997 RMK AO2 SLP122 T00890083
Traffic Incident Summary
Active as of:
Severity:
Category:
InformationThere was an issue retrieving the traffic information for this location. Please try a different location or try again shortly.
Advertisements
At Last! Intellicast now available for iPhone and Android